Time;durP1;ratioP1;P1;durP2;ratioP2;P2;SDS_P1;SDS_P2;PMS_P1;PMS_P2;Temp;Humidity;BMP_temperature;BMP_pressure;BME280_temperature;BME280_humidity;BME280_pressure;Samples;Min_cycle;Max_cycle;Signal;HPM_P1;HPM_P2
2021/10/06 00:01:06;;;;;;;3.07;0.20;;;;;;;;;;5057971;28;20199;-67
2021/10/06 00:03:34;;;;;;;0.00;0.00;;;;;;;;;;5048912;28;20677;-67
2021/10/06 00:06:01;;;;;;;0.17;0.17;;;;;;;;;;5049919;28;20200;-67
2021/10/06 00:08:30;;;;;;;0.00;0.00;;;;;;;;;;5047571;28;20587;-68
2021/10/06 00:10:57;;;;;;;0.00;0.00;;;;;;;;;;5051128;28;20207;-69
2021/10/06 00:13:25;;;;;;;0.00;0.00;;;;;;;;;;5048579;28;20590;-67
2021/10/06 00:15:52;;;;;;;0.10;0.00;;;;;;;;;;5043485;28;20208;-67
2021/10/06 00:18:19;;;;;;;1.57;1.03;;;;;;;;;;5047109;28;20200;-67
2021/10/06 00:20:47;;;;;;;0.20;0.20;;;;;;;;;;5050154;28;20207;-68
2021/10/06 00:23:14;;;;;;;0.40;0.40;;;;;;;;;;5044725;28;20684;-68
2021/10/06 00:25:43;;;;;;;0.00;0.00;;;;;;;;;;5043775;28;20204;-68
2021/10/06 00:28:11;;;;;;;0.00;0.00;;;;;;;;;;5046016;28;20231;-67
2021/10/06 00:30:38;;;;;;;0.20;0.20;;;;;;;;;;5047200;28;20206;-69
2021/10/06 00:33:06;;;;;;;0.00;0.00;;;;;;;;;;5044903;28;20560;-68
2021/10/06 00:35:33;;;;;;;0.00;0.00;;;;;;;;;;5049677;28;20534;-68
2021/10/06 00:38:01;;;;;;;0.00;0.00;;;;;;;;;;5047169;28;20196;-69
2021/10/06 00:40:28;;;;;;;0.87;0.23;;;;;;;;;;5049863;28;20199;-69
2021/10/06 00:42:57;;;;;;;0.00;0.00;;;;;;;;;;5042691;28;20191;-67
2021/10/06 00:45:24;;;;;;;0.00;0.00;;;;;;;;;;5045726;28;20584;-68
2021/10/06 00:47:52;;;;;;;0.00;0.00;;;;;;;;;;5049193;28;20234;-68
2021/10/06 00:50:19;;;;;;;0.20;0.20;;;;;;;;;;5049782;28;20200;-68
2021/10/06 00:52:47;;;;;;;1.03;0.90;;;;;;;;;;5047936;28;20214;-68
2021/10/06 00:55:15;;;;;;;0.00;0.00;;;;;;;;;;5048477;28;20222;-68
2021/10/06 00:57:43;;;;;;;0.00;0.00;;;;;;;;;;5048836;28;20203;-68
2021/10/06 01:00:12;;;;;;;0.00;0.00;;;;;;;;;;5048954;28;20215;-68
2021/10/06 01:02:40;;;;;;;0.10;0.10;;;;;;;;;;5047040;28;20931;-68
2021/10/06 01:05:09;;;;;;;0.00;0.00;;;;;;;;;;5047799;28;20215;-68
2021/10/06 01:07:36;;;;;;;0.40;0.13;;;;;;;;;;5047299;28;20235;-68
2021/10/06 01:10:04;;;;;;;0.00;0.00;;;;;;;;;;5050063;28;20206;-68
2021/10/06 01:12:32;;;;;;;1.30;1.10;;;;;;;;;;5047206;28;20661;-68
2021/10/06 01:15:00;;;;;;;0.00;0.00;;;;;;;;;;5045187;28;20200;-68
2021/10/06 01:17:29;;;;;;;0.17;0.17;;;;;;;;;;5044980;28;20207;-68
2021/10/06 01:19:56;;;;;;;0.00;0.00;;;;;;;;;;5042828;28;20204;-68
2021/10/06 01:22:25;;;;;;;4.43;0.17;;;;;;;;;;5049273;28;20202;-67
2021/10/06 01:24:52;;;;;;;0.10;0.10;;;;;;;;;;5047868;28;20210;-68
2021/10/06 01:27:20;;;;;;;0.00;0.00;;;;;;;;;;5046779;28;20284;-67
2021/10/06 01:29:47;;;;;;;0.00;0.00;;;;;;;;;;5049209;28;20677;-67
2021/10/06 01:32:16;;;;;;;1.40;0.20;;;;;;;;;;5049736;28;20214;-69
2021/10/06 01:34:44;;;;;;;0.03;0.03;;;;;;;;;;5046120;28;20199;-67
2021/10/06 01:37:11;;;;;;;0.27;0.27;;;;;;;;;;5048379;28;20201;-67
2021/10/06 01:39:40;;;;;;;0.00;0.00;;;;;;;;;;5056774;28;20567;-67
2021/10/06 01:42:08;;;;;;;0.00;0.00;;;;;;;;;;5049757;28;20577;-66
2021/10/06 01:44:35;;;;;;;0.10;0.10;;;;;;;;;;5046540;28;20195;-67
2021/10/06 01:47:03;;;;;;;0.00;0.00;;;;;;;;;;5047769;28;20203;-68
2021/10/06 01:49:30;;;;;;;7.67;0.23;;;;;;;;;;5048350;28;20723;-67
2021/10/06 01:51:57;;;;;;;0.33;0.10;;;;;;;;;;5044821;28;20202;-68
2021/10/06 01:54:25;;;;;;;0.00;0.00;;;;;;;;;;5047504;28;20200;-67
2021/10/06 01:56:54;;;;;;;1.00;0.10;;;;;;;;;;5047278;28;20195;-67
2021/10/06 01:59:21;;;;;;;0.00;0.00;;;;;;;;;;5044285;28;20213;-67
2021/10/06 02:01:48;;;;;;;0.00;0.00;;;;;;;;;;5048514;28;20570;-66
2021/10/06 02:04:16;;;;;;;0.07;0.07;;;;;;;;;;5047156;28;20220;-69
2021/10/06 02:06:43;;;;;;;0.37;0.37;;;;;;;;;;5044388;28;20601;-67
2021/10/06 02:09:11;;;;;;;0.10;0.10;;;;;;;;;;5049182;28;20714;-67
2021/10/06 02:11:39;;;;;;;0.93;0.80;;;;;;;;;;5049356;28;20212;-68
2021/10/06 02:14:08;;;;;;;0.00;0.00;;;;;;;;;;5051378;28;20292;-67
2021/10/06 02:16:35;;;;;;;0.37;0.30;;;;;;;;;;5047698;28;20200;-68
2021/10/06 02:19:04;;;;;;;0.50;0.13;;;;;;;;;;5046058;28;20558;-68
2021/10/06 02:21:32;;;;;;;0.10;0.10;;;;;;;;;;5048185;28;20728;-68
2021/10/06 02:24:00;;;;;;;0.00;0.00;;;;;;;;;;5045339;28;20305;-69
2021/10/06 02:26:27;;;;;;;0.07;0.07;;;;;;;;;;5045786;28;20745;-69
2021/10/06 02:28:55;;;;;;;0.00;0.00;;;;;;;;;;5049061;28;20233;-68
2021/10/06 02:31:24;;;;;;;0.10;0.10;;;;;;;;;;5050058;28;20577;-68
2021/10/06 02:33:51;;;;;;;0.00;0.00;;;;;;;;;;5050573;28;20211;-68
2021/10/06 02:36:18;;;;;;;0.43;0.20;;;;;;;;;;5050188;28;20196;-68
2021/10/06 02:38:46;;;;;;;0.10;0.10;;;;;;;;;;5051313;28;20206;-68
2021/10/06 02:41:13;;;;;;;0.00;0.00;;;;;;;;;;5052428;28;20207;-69
2021/10/06 02:43:41;;;;;;;0.60;0.60;;;;;;;;;;5050884;28;20199;-67
2021/10/06 02:46:08;;;;;;;0.10;0.10;;;;;;;;;;5052870;28;20298;-67
2021/10/06 02:48:37;;;;;;;0.20;0.20;;;;;;;;;;5050384;28;20227;-67
2021/10/06 02:51:05;;;;;;;0.10;0.10;;;;;;;;;;5050196;28;20669;-68
2021/10/06 02:53:32;;;;;;;0.30;0.30;;;;;;;;;;5050082;28;20206;-67
2021/10/06 02:55:59;;;;;;;0.00;0.00;;;;;;;;;;5047780;28;20209;-68
2021/10/06 02:58:27;;;;;;;0.40;0.40;;;;;;;;;;5048240;28;20747;-68
2021/10/06 03:00:54;;;;;;;0.20;0.20;;;;;;;;;;5047929;28;20579;-69
2021/10/06 03:03:22;;;;;;;0.10;0.10;;;;;;;;;;5051485;28;20200;-69
2021/10/06 03:05:51;;;;;;;0.00;0.00;;;;;;;;;;5052062;28;20576;-69
2021/10/06 03:08:18;;;;;;;0.40;0.23;;;;;;;;;;5048868;28;20253;-69
2021/10/06 03:10:45;;;;;;;0.30;0.17;;;;;;;;;;5052106;28;20208;-69
2021/10/06 03:13:13;;;;;;;0.20;0.20;;;;;;;;;;5051631;28;20580;-69
2021/10/06 03:15:40;;;;;;;0.10;0.10;;;;;;;;;;5045817;28;20201;-69
2021/10/06 03:18:08;;;;;;;0.13;0.13;;;;;;;;;;5046397;28;20214;-69
2021/10/06 03:20:37;;;;;;;0.00;0.00;;;;;;;;;;5049406;28;20221;-69
2021/10/06 03:23:06;;;;;;;0.00;0.00;;;;;;;;;;5050107;28;20261;-69
2021/10/06 03:25:34;;;;;;;0.00;0.00;;;;;;;;;;5050928;28;20558;-69
2021/10/06 03:28:01;;;;;;;0.40;0.40;;;;;;;;;;5050979;28;20203;-69
2021/10/06 03:30:29;;;;;;;2.50;0.93;;;;;;;;;;5049956;28;20199;-72
2021/10/06 03:32:57;;;;;;;0.00;0.00;;;;;;;;;;5050501;28;20210;-69
2021/10/06 03:35:24;;;;;;;0.10;0.10;;;;;;;;;;5049848;28;20209;-69
2021/10/06 03:37:52;;;;;;;0.00;0.00;;;;;;;;;;5051336;28;20575;-69
2021/10/06 03:40:21;;;;;;;2.83;0.20;;;;;;;;;;5048818;28;20214;-70
2021/10/06 03:42:49;;;;;;;0.00;0.00;;;;;;;;;;5047101;28;20222;-69
2021/10/06 03:45:17;;;;;;;0.10;0.10;;;;;;;;;;5050294;28;20211;-69
2021/10/06 03:47:45;;;;;;;0.00;0.00;;;;;;;;;;5050260;28;20203;-69
2021/10/06 03:50:13;;;;;;;0.00;0.00;;;;;;;;;;5049377;28;20227;-69
2021/10/06 03:52:41;;;;;;;0.00;0.00;;;;;;;;;;5049603;28;20583;-68
2021/10/06 03:55:10;;;;;;;0.43;0.37;;;;;;;;;;5047457;28;20203;-68
2021/10/06 03:57:39;;;;;;;0.10;0.00;;;;;;;;;;5051482;28;20585;-69
2021/10/06 04:00:07;;;;;;;0.00;0.00;;;;;;;;;;5049897;28;20196;-68
2021/10/06 04:02:35;;;;;;;1.80;0.73;;;;;;;;;;5049411;28;20681;-68
2021/10/06 04:05:02;;;;;;;0.50;0.50;;;;;;;;;;5058944;28;20219;-69
2021/10/06 04:07:29;;;;;;;0.00;0.00;;;;;;;;;;5050543;28;20234;-68
2021/10/06 04:09:57;;;;;;;0.00;0.00;;;;;;;;;;5049873;28;20235;-70
2021/10/06 04:12:24;;;;;;;5.80;0.77;;;;;;;;;;5049147;28;20206;-68
2021/10/06 04:14:53;;;;;;;0.00;0.00;;;;;;;;;;5047774;28;20206;-70
2021/10/06 04:17:21;;;;;;;0.10;0.10;;;;;;;;;;5053168;28;20218;-70
2021/10/06 04:19:48;;;;;;;0.03;0.03;;;;;;;;;;5048836;28;20583;-69
2021/10/06 04:22:16;;;;;;;0.17;0.17;;;;;;;;;;5050099;28;20211;-69
2021/10/06 04:24:43;;;;;;;0.23;0.23;;;;;;;;;;5049799;28;20203;-69
2021/10/06 04:27:11;;;;;;;0.20;0.10;;;;;;;;;;5050322;28;20554;-70
2021/10/06 04:29:38;;;;;;;0.50;0.50;;;;;;;;;;5046607;28;20636;-69
2021/10/06 04:32:07;;;;;;;0.80;0.57;;;;;;;;;;5050721;28;20207;-68
2021/10/06 04:34:35;;;;;;;0.00;0.00;;;;;;;;;;5047104;28;20601;-69
2021/10/06 04:37:02;;;;;;;0.20;0.07;;;;;;;;;;5050294;28;20292;-71
2021/10/06 04:39:29;;;;;;;0.00;0.00;;;;;;;;;;5048332;28;20567;-68
2021/10/06 04:41:57;;;;;;;1.27;0.60;;;;;;;;;;5048596;28;20212;-70
2021/10/06 04:44:24;;;;;;;0.00;0.00;;;;;;;;;;5049336;28;20218;-69
2021/10/06 04:46:52;;;;;;;0.00;0.00;;;;;;;;;;5050470;28;20206;-69
2021/10/06 04:49:20;;;;;;;0.00;0.00;;;;;;;;;;5047830;28;20237;-69
2021/10/06 04:51:48;;;;;;;1.07;0.40;;;;;;;;;;5046131;28;20210;-68
2021/10/06 04:54:15;;;;;;;0.53;0.53;;;;;;;;;;5048825;28;20573;-69
2021/10/06 04:56:43;;;;;;;0.00;0.00;;;;;;;;;;5050389;28;20207;-68
2021/10/06 04:59:10;;;;;;;1.30;0.77;;;;;;;;;;5046362;28;20200;-68
2021/10/06 05:01:38;;;;;;;0.00;0.00;;;;;;;;;;5045234;28;20208;-68
2021/10/06 05:04:06;;;;;;;6.67;1.10;;;;;;;;;;5047679;28;20208;-68
2021/10/06 05:06:35;;;;;;;0.30;0.30;;;;;;;;;;5048781;28;20227;-69
2021/10/06 05:09:02;;;;;;;0.17;0.17;;;;;;;;;;5049334;28;20219;-67
2021/10/06 05:11:29;;;;;;;6.50;0.23;;;;;;;;;;5047686;28;20200;-67
2021/10/06 05:13:59;;;;;;;0.10;0.10;;;;;;;;;;5049479;28;20204;-68
2021/10/06 05:16:26;;;;;;;0.00;0.00;;;;;;;;;;5048288;28;20204;-67
2021/10/06 05:18:54;;;;;;;0.40;0.30;;;;;;;;;;5041204;28;20200;-67
2021/10/06 05:21:21;;;;;;;0.10;0.10;;;;;;;;;;5041529;28;20200;-67
2021/10/06 05:23:50;;;;;;;0.50;0.40;;;;;;;;;;5047316;28;20614;-67
2021/10/06 05:26:17;;;;;;;10.03;0.57;;;;;;;;;;5048723;28;20214;-68
2021/10/06 05:28:45;;;;;;;2.47;1.07;;;;;;;;;;5040058;28;20322;-67
2021/10/06 05:31:12;;;;;;;1.20;0.37;;;;;;;;;;5049150;28;20199;-67
2021/10/06 05:33:40;;;;;;;1.30;0.60;;;;;;;;;;5047371;28;20203;-68
2021/10/06 05:36:07;;;;;;;0.47;0.47;;;;;;;;;;5050364;28;20571;-68
2021/10/06 05:38:35;;;;;;;0.83;0.07;;;;;;;;;;5047555;28;20215;-67
2021/10/06 05:41:04;;;;;;;0.13;0.13;;;;;;;;;;5047617;28;20207;-68
2021/10/06 05:43:31;;;;;;;0.00;0.00;;;;;;;;;;5047635;28;20204;-67
2021/10/06 05:45:58;;;;;;;0.20;0.20;;;;;;;;;;5048523;28;20573;-70
2021/10/06 05:48:26;;;;;;;0.73;0.07;;;;;;;;;;5047475;28;20680;-67
2021/10/06 05:50:53;;;;;;;0.00;0.00;;;;;;;;;;5044945;28;20206;-67
2021/10/06 05:53:21;;;;;;;0.00;0.00;;;;;;;;;;5048452;28;20207;-68
2021/10/06 05:55:48;;;;;;;0.40;0.30;;;;;;;;;;5045242;28;20203;-67
2021/10/06 05:58:18;;;;;;;0.40;0.40;;;;;;;;;;5048939;28;20565;-68
2021/10/06 06:00:45;;;;;;;0.00;0.00;;;;;;;;;;5045500;28;20285;-67
2021/10/06 06:03:13;;;;;;;0.00;0.00;;;;;;;;;;5048806;28;20199;-68
2021/10/06 06:05:40;;;;;;;0.10;0.10;;;;;;;;;;5047980;28;20206;-68
2021/10/06 06:08:08;;;;;;;0.00;0.00;;;;;;;;;;5053134;28;20227;-67
2021/10/06 06:10:35;;;;;;;0.00;0.00;;;;;;;;;;5049471;28;20761;-67
2021/10/06 06:13:03;;;;;;;0.20;0.10;;;;;;;;;;5050587;28;20201;-68
2021/10/06 06:15:32;;;;;;;0.10;0.03;;;;;;;;;;5054059;28;20195;-67
2021/10/06 06:17:59;;;;;;;0.10;0.10;;;;;;;;;;5052759;28;20265;-68
2021/10/06 06:20:27;;;;;;;0.00;0.00;;;;;;;;;;5051630;28;20561;-67
2021/10/06 06:22:55;;;;;;;0.00;0.00;;;;;;;;;;5051789;28;20661;-67
2021/10/06 06:25:23;;;;;;;0.30;0.30;;;;;;;;;;5052158;28;20201;-68
2021/10/06 06:27:50;;;;;;;0.70;0.40;;;;;;;;;;5051885;28;20208;-67
2021/10/06 06:30:17;;;;;;;0.10;0.10;;;;;;;;;;5050472;28;20284;-69
2021/10/06 06:32:46;;;;;;;7.30;0.67;;;;;;;;;;5052406;28;20211;-69
2021/10/06 06:35:14;;;;;;;0.03;0.03;;;;;;;;;;5051049;28;20207;-67
2021/10/06 06:37:41;;;;;;;1.10;0.10;;;;;;;;;;5056500;28;20215;-68
2021/10/06 06:40:10;;;;;;;0.93;0.93;;;;;;;;;;5054835;28;20222;-68
2021/10/06 06:42:38;;;;;;;0.20;0.20;;;;;;;;;;5050766;28;20699;-67
2021/10/06 06:45:06;;;;;;;0.13;0.13;;;;;;;;;;5049145;28;20341;-68
2021/10/06 06:47:33;;;;;;;0.10;0.10;;;;;;;;;;5048106;28;20204;-70
2021/10/06 06:50:02;;;;;;;0.10;0.10;;;;;;;;;;5051833;28;20227;-69
2021/10/06 06:52:29;;;;;;;0.27;0.27;;;;;;;;;;5050064;28;20196;-69
2021/10/06 06:54:57;;;;;;;0.10;0.10;;;;;;;;;;5051860;28;20196;-67
2021/10/06 06:57:25;;;;;;;0.10;0.10;;;;;;;;;;5051379;28;21600;-66
2021/10/06 06:59:53;;;;;;;0.00;0.00;;;;;;;;;;5052861;28;20806;-66
2021/10/06 07:02:21;;;;;;;2.20;1.13;;;;;;;;;;5050672;28;20210;-69
2021/10/06 07:04:48;;;;;;;0.00;0.00;;;;;;;;;;5051509;28;20199;-68
2021/10/06 07:07:17;;;;;;;0.00;0.00;;;;;;;;;;5051816;28;20223;-69
2021/10/06 07:09:49;;;;;;;0.23;0.10;;;;;;;;;;5050795;28;20235;-68
2021/10/06 07:12:17;;;;;;;0.30;0.30;;;;;;;;;;5050728;28;20210;-69
2021/10/06 07:14:45;;;;;;;0.80;0.80;;;;;;;;;;5049297;28;20207;-68
2021/10/06 07:17:12;;;;;;;2.17;0.67;;;;;;;;;;5053176;28;20275;-68
2021/10/06 07:19:40;;;;;;;7.13;0.73;;;;;;;;;;5051706;28;20545;-67
2021/10/06 07:22:08;;;;;;;0.00;0.00;;;;;;;;;;5050221;28;20207;-68
2021/10/06 07:24:37;;;;;;;0.60;0.50;;;;;;;;;;5051152;28;20210;-68
2021/10/06 07:27:05;;;;;;;0.00;0.00;;;;;;;;;;5062600;28;20235;-68
2021/10/06 07:29:32;;;;;;;2.33;1.40;;;;;;;;;;5051309;28;20273;-67
2021/10/06 07:32:01;;;;;;;0.00;0.00;;;;;;;;;;5049618;28;20210;-68
2021/10/06 07:34:28;;;;;;;0.10;0.10;;;;;;;;;;5050217;28;20214;-68
2021/10/06 07:36:56;;;;;;;0.00;0.00;;;;;;;;;;5049210;28;20196;-69
2021/10/06 07:39:23;;;;;;;0.00;0.00;;;;;;;;;;5050548;28;20211;-68
2021/10/06 07:41:52;;;;;;;0.00;0.00;;;;;;;;;;5049781;28;20326;-67
2021/10/06 07:44:19;;;;;;;0.50;0.30;;;;;;;;;;5050202;28;20230;-67
2021/10/06 07:46:47;;;;;;;0.00;0.00;;;;;;;;;;5051026;28;20673;-68
2021/10/06 07:49:14;;;;;;;0.37;0.37;;;;;;;;;;5048014;28;20211;-69
2021/10/06 07:51:42;;;;;;;0.00;0.00;;;;;;;;;;5044478;28;20203;-66
2021/10/06 07:54:09;;;;;;;0.77;0.50;;;;;;;;;;5049108;28;20207;-68
2021/10/06 07:56:37;;;;;;;0.00;0.00;;;;;;;;;;5051550;28;20204;-68
2021/10/06 07:59:06;;;;;;;0.00;0.00;;;;;;;;;;5051018;28;20715;-67
2021/10/06 08:01:33;;;;;;;0.20;0.20;;;;;;;;;;5049192;28;20788;-67
2021/10/06 08:04:00;;;;;;;0.00;0.00;;;;;;;;;;5050947;28;20218;-68
2021/10/06 08:06:28;;;;;;;0.13;0.10;;;;;;;;;;5050207;28;20203;-67
2021/10/06 08:08:56;;;;;;;0.10;0.10;;;;;;;;;;5047592;28;20220;-69
2021/10/06 08:11:24;;;;;;;0.00;0.00;;;;;;;;;;5049688;28;20224;-69
2021/10/06 08:13:51;;;;;;;0.20;0.20;;;;;;;;;;5051229;28;20212;-68
2021/10/06 08:16:20;;;;;;;0.00;0.00;;;;;;;;;;5051257;28;20199;-66
2021/10/06 08:18:47;;;;;;;0.00;0.00;;;;;;;;;;5048691;28;20214;-69
2021/10/06 08:21:15;;;;;;;0.00;0.00;;;;;;;;;;5042854;28;20204;-69
2021/10/06 08:23:42;;;;;;;0.00;0.00;;;;;;;;;;5043087;28;20677;-68
2021/10/06 08:26:09;;;;;;;0.00;0.00;;;;;;;;;;5051886;28;20257;-68
2021/10/06 08:28:37;;;;;;;0.00;0.00;;;;;;;;;;5036161;28;20200;-68
2021/10/06 08:31:04;;;;;;;0.00;0.00;;;;;;;;;;5048203;28;20565;-68
2021/10/06 08:33:33;;;;;;;0.37;0.37;;;;;;;;;;5052205;28;20208;-68
2021/10/06 08:36:00;;;;;;;0.00;0.00;;;;;;;;;;5051286;28;20715;-68
2021/10/06 08:38:28;;;;;;;0.00;0.00;;;;;;;;;;5049075;28;20665;-68
2021/10/06 08:40:56;;;;;;;0.27;0.17;;;;;;;;;;5050246;28;20218;-68
2021/10/06 08:43:24;;;;;;;0.00;0.00;;;;;;;;;;5048910;28;20195;-68
2021/10/06 08:45:51;;;;;;;0.10;0.10;;;;;;;;;;5050417;28;20210;-68
2021/10/06 08:48:20;;;;;;;0.10;0.10;;;;;;;;;;5049773;28;20215;-68
2021/10/06 08:50:49;;;;;;;0.20;0.20;;;;;;;;;;5049444;28;20235;-68
2021/10/06 08:53:16;;;;;;;0.00;0.00;;;;;;;;;;5047397;28;20205;-68
2021/10/06 08:55:43;;;;;;;0.00;0.00;;;;;;;;;;5050677;28;20246;-68
2021/10/06 08:58:11;;;;;;;0.20;0.20;;;;;;;;;;5048784;28;20672;-68
2021/10/06 09:00:55;;;;;;;0.10;0.10;;;;;;;;;;5046436;28;20208;-68
2021/10/06 09:03:27;;;;;;;0.83;0.47;;;;;;;;;;5045840;28;20204;-67
2021/10/06 09:06:09;;;;;;;0.00;0.00;;;;;;;;;;5040783;28;20242;-68
2021/10/06 09:08:37;;;;;;;0.00;0.00;;;;;;;;;;5043637;28;20866;-67
2021/10/06 09:11:06;;;;;;;0.07;0.07;;;;;;;;;;5048477;28;20224;-67
2021/10/06 09:13:34;;;;;;;0.07;0.07;;;;;;;;;;5036593;28;20207;-66
2021/10/06 09:16:02;;;;;;;0.33;0.33;;;;;;;;;;5035292;28;20207;-66
2021/10/06 09:18:30;;;;;;;0.00;0.00;;;;;;;;;;5035712;28;20207;-68
2021/10/06 09:20:59;;;;;;;0.57;0.57;;;;;;;;;;5037807;28;20210;-69
2021/10/06 09:23:28;;;;;;;0.57;0.50;;;;;;;;;;5037026;28;20189;-68
2021/10/06 09:25:57;;;;;;;0.00;0.00;;;;;;;;;;5037930;28;20314;-67
2021/10/06 09:28:26;;;;;;;2.13;0.47;;;;;;;;;;5032750;28;20217;-67
2021/10/06 09:30:54;;;;;;;0.50;0.50;;;;;;;;;;5035115;28;20234;-67
2021/10/06 09:33:21;;;;;;;0.77;0.77;;;;;;;;;;5037302;28;20203;-73
2021/10/06 09:36:08;;;;;;;0.30;0.30;;;;;;;;;;5048549;28;20226;-71
2021/10/06 09:38:44;;;;;;;0.00;0.00;;;;;;;;;;5055590;28;20191;-67
2021/10/06 09:41:28;;;;;;;0.33;0.33;;;;;;;;;;5034097;28;20192;-67
2021/10/06 09:44:00;;;;;;;0.00;0.00;;;;;;;;;;5036290;28;20665;-67
2021/10/06 09:46:34;;;;;;;0.10;0.10;;;;;;;;;;5037567;28;20204;-69
2021/10/06 09:49:02;;;;;;;0.03;0.03;;;;;;;;;;5035242;28;20204;-69
2021/10/06 09:51:29;;;;;;;0.00;0.00;;;;;;;;;;5038463;28;20228;-69
2021/10/06 09:54:01;;;;;;;0.13;0.13;;;;;;;;;;5033254;28;20208;-68
2021/10/06 09:56:39;;;;;;;0.00;0.00;;;;;;;;;;5033310;28;20207;-68
2021/10/06 09:59:07;;;;;;;0.07;0.07;;;;;;;;;;5035276;28;20668;-66
2021/10/06 10:01:39;;;;;;;0.10;0.10;;;;;;;;;;5034458;28;20668;-69
2021/10/06 10:04:08;;;;;;;0.00;0.00;;;;;;;;;;5036192;28;20208;-74
2021/10/06 10:06:35;;;;;;;0.00;0.00;;;;;;;;;;5033908;28;20290;-68
2021/10/06 10:09:06;;;;;;;1.40;0.33;;;;;;;;;;5035618;28;20207;-68
2021/10/06 10:11:35;;;;;;;0.00;0.00;;;;;;;;;;5032831;28;20274;-68
2021/10/06 10:14:04;;;;;;;0.00;0.00;;;;;;;;;;5047702;28;20278;-68
2021/10/06 10:16:31;;;;;;;0.00;0.00;;;;;;;;;;5047948;28;20199;-68
2021/10/06 10:19:03;;;;;;;0.10;0.10;;;;;;;;;;5049067;28;20215;-67
2021/10/06 10:21:31;;;;;;;0.20;0.20;;;;;;;;;;5045738;28;20203;-68
2021/10/06 10:24:07;;;;;;;0.00;0.00;;;;;;;;;;5046726;28;20216;-67
2021/10/06 10:26:35;;;;;;;0.00;0.00;;;;;;;;;;5044074;28;20210;-66
2021/10/06 10:29:02;;;;;;;0.13;0.07;;;;;;;;;;5048481;28;20211;-66
2021/10/06 10:31:29;;;;;;;3.13;2.73;;;;;;;;;;5047456;28;20260;-66
2021/10/06 10:33:57;;;;;;;5.73;0.43;;;;;;;;;;5047151;28;20199;-66
2021/10/06 10:36:43;;;;;;;0.00;0.00;;;;;;;;;;5046792;28;20239;-66
2021/10/06 10:39:26;;;;;;;0.10;0.10;;;;;;;;;;5048465;28;20772;-66
2021/10/06 10:41:56;;;;;;;0.10;0.10;;;;;;;;;;5040292;28;20294;-66
2021/10/06 10:44:24;;;;;;;0.00;0.00;;;;;;;;;;5032934;28;20208;-71
2021/10/06 10:46:57;;;;;;;0.00;0.00;;;;;;;;;;5035193;28;20235;-67
2021/10/06 10:49:24;;;;;;;0.43;0.43;;;;;;;;;;5033895;28;20204;-67
2021/10/06 10:51:56;;;;;;;0.27;0.27;;;;;;;;;;5036315;28;20235;-66
2021/10/06 10:54:34;;;;;;;0.00;0.00;;;;;;;;;;5036954;28;20212;-67
2021/10/06 10:57:07;;;;;;;0.73;0.73;;;;;;;;;;5037760;28;20209;-67
2021/10/06 10:59:42;;;;;;;0.00;0.00;;;;;;;;;;5037270;28;20204;-67
2021/10/06 11:02:21;;;;;;;0.00;0.00;;;;;;;;;;5038290;28;20294;-67
2021/10/06 11:04:49;;;;;;;0.20;0.10;;;;;;;;;;5038359;28;20682;-66
2021/10/06 11:07:18;;;;;;;0.00;0.00;;;;;;;;;;5036238;28;20226;-67
2021/10/06 11:09:47;;;;;;;0.80;0.30;;;;;;;;;;5037799;28;20223;-68
2021/10/06 11:12:32;;;;;;;0.00;0.00;;;;;;;;;;5038003;28;20223;-67
2021/10/06 11:15:08;;;;;;;0.13;0.13;;;;;;;;;;5039286;28;20290;-67
2021/10/06 11:17:36;;;;;;;0.00;0.00;;;;;;;;;;5037952;28;20298;-67
2021/10/06 11:20:04;;;;;;;0.00;0.00;;;;;;;;;;5038063;28;20291;-67
2021/10/06 11:22:42;;;;;;;0.50;0.43;;;;;;;;;;5036526;28;20208;-67
2021/10/06 11:25:10;;;;;;;0.00;0.00;;;;;;;;;;5038274;28;20258;-67
2021/10/06 11:27:47;;;;;;;0.10;0.10;;;;;;;;;;5040466;28;20254;-67
2021/10/06 11:30:15;;;;;;;0.20;0.20;;;;;;;;;;5040158;28;20212;-68
2021/10/06 11:32:46;;;;;;;0.00;0.00;;;;;;;;;;5038411;28;20227;-68
2021/10/06 11:35:14;;;;;;;0.00;0.00;;;;;;;;;;5042392;28;20237;-67
2021/10/06 11:37:41;;;;;;;0.00;0.00;;;;;;;;;;5046859;28;20214;-67
2021/10/06 11:40:12;;;;;;;0.00;0.00;;;;;;;;;;5046703;28;20195;-67
2021/10/06 11:42:39;;;;;;;0.00;0.00;;;;;;;;;;5044239;28;20196;-68
2021/10/06 11:45:17;;;;;;;0.10;0.10;;;;;;;;;;5050336;28;20203;-67
2021/10/06 11:47:45;;;;;;;0.20;0.20;;;;;;;;;;5047982;28;20532;-66
2021/10/06 11:50:12;;;;;;;0.10;0.10;;;;;;;;;;5050937;28;20212;-66
2021/10/06 11:52:40;;;;;;;0.13;0.13;;;;;;;;;;5047260;28;20228;-66
2021/10/06 11:55:08;;;;;;;0.40;0.37;;;;;;;;;;5037673;28;20207;-67
2021/10/06 11:57:35;;;;;;;0.00;0.00;;;;;;;;;;5038812;28;20204;-66
2021/10/06 12:00:02;;;;;;;0.40;0.40;;;;;;;;;;5039587;28;20215;-67
2021/10/06 12:02:31;;;;;;;0.10;0.10;;;;;;;;;;5036009;28;20656;-68
2021/10/06 12:04:59;;;;;;;0.00;0.00;;;;;;;;;;5036112;28;20214;-67
2021/10/06 12:07:31;;;;;;;0.00;0.00;;;;;;;;;;5037238;28;20235;-68
2021/10/06 12:10:01;;;;;;;0.00;0.00;;;;;;;;;;5038714;28;20253;-67
2021/10/06 12:12:32;;;;;;;0.00;0.00;;;;;;;;;;5038269;28;20355;-68
2021/10/06 12:15:00;;;;;;;0.20;0.00;;;;;;;;;;5037432;28;20722;-67
2021/10/06 12:17:28;;;;;;;0.00;0.00;;;;;;;;;;5037393;28;20199;-65
2021/10/06 12:19:59;;;;;;;1.30;0.47;;;;;;;;;;5048925;28;20207;-68
2021/10/06 12:22:34;;;;;;;0.00;0.00;;;;;;;;;;5050066;28;20207;-67
2021/10/06 12:25:02;;;;;;;0.00;0.00;;;;;;;;;;5051938;28;20200;-66
2021/10/06 12:27:30;;;;;;;0.00;0.00;;;;;;;;;;5050763;28;20211;-67
2021/10/06 12:30:11;;;;;;;1.73;0.37;;;;;;;;;;5053199;28;20295;-68
2021/10/06 12:32:41;;;;;;;0.00;0.00;;;;;;;;;;5049317;28;20254;-67
2021/10/06 12:35:11;;;;;;;0.00;0.00;;;;;;;;;;5050852;28;20199;-66
2021/10/06 12:37:47;;;;;;;0.00;0.00;;;;;;;;;;5048976;28;20214;-67
2021/10/06 12:40:29;;;;;;;0.40;0.40;;;;;;;;;;5049036;28;20219;-66
2021/10/06 12:43:04;;;;;;;0.00;0.00;;;;;;;;;;5049362;28;20204;-66
2021/10/06 12:45:32;;;;;;;0.00;0.00;;;;;;;;;;5051248;28;20210;-66
2021/10/06 12:48:00;;;;;;;0.63;0.10;;;;;;;;;;5049411;28;20683;-67
2021/10/06 12:50:28;;;;;;;0.30;0.30;;;;;;;;;;5048150;28;20199;-67
2021/10/06 12:52:56;;;;;;;0.00;0.00;;;;;;;;;;5041347;28;20231;-67
2021/10/06 12:55:23;;;;;;;0.00;0.00;;;;;;;;;;5050763;28;20199;-68
2021/10/06 12:58:05;;;;;;;0.00;0.00;;;;;;;;;;5049905;28;20210;-66
2021/10/06 13:00:33;;;;;;;0.00;0.00;;;;;;;;;;5048541;28;20203;-67
2021/10/06 13:03:00;;;;;;;0.00;0.00;;;;;;;;;;5050016;28;20207;-67
2021/10/06 13:05:29;;;;;;;0.10;0.10;;;;;;;;;;5032681;28;20223;-67
2021/10/06 13:07:56;;;;;;;0.40;0.40;;;;;;;;;;5035132;28;20251;-66
2021/10/06 13:10:25;;;;;;;0.00;0.00;;;;;;;;;;5036661;28;20208;-66
2021/10/06 13:12:52;;;;;;;0.00;0.00;;;;;;;;;;5034563;28;20235;-66
2021/10/06 13:15:19;;;;;;;0.00;0.00;;;;;;;;;;5036076;28;20203;-66
2021/10/06 13:17:47;;;;;;;0.30;0.30;;;;;;;;;;5035275;28;20698;-67
2021/10/06 13:20:14;;;;;;;0.00;0.00;;;;;;;;;;5034678;28;20211;-67
2021/10/06 13:22:43;;;;;;;0.00;0.00;;;;;;;;;;5037499;28;20208;-66
2021/10/06 13:25:10;;;;;;;0.10;0.10;;;;;;;;;;5035504;28;20207;-65
2021/10/06 13:27:38;;;;;;;0.10;0.10;;;;;;;;;;5033913;28;20208;-66
2021/10/06 13:30:06;;;;;;;0.43;0.40;;;;;;;;;;5033581;28;20213;-66
2021/10/06 13:32:33;;;;;;;0.10;0.10;;;;;;;;;;5035181;28;22210;-65
2021/10/06 13:35:01;;;;;;;0.00;0.00;;;;;;;;;;5036034;28;20295;-66
2021/10/06 13:37:28;;;;;;;0.00;0.00;;;;;;;;;;5049347;28;20676;-66
2021/10/06 13:39:57;;;;;;;0.00;0.00;;;;;;;;;;5047571;28;20211;-66
2021/10/06 13:42:25;;;;;;;0.00;0.00;;;;;;;;;;5049736;28;20230;-65
2021/10/06 13:44:52;;;;;;;1.97;0.90;;;;;;;;;;5046963;28;20203;-66
2021/10/06 13:47:20;;;;;;;0.00;0.00;;;;;;;;;;5046764;28;20210;-66
2021/10/06 13:49:47;;;;;;;0.00;0.00;;;;;;;;;;5047788;28;20298;-65
2021/10/06 13:52:14;;;;;;;0.10;0.10;;;;;;;;;;5048646;28;20267;-65
2021/10/06 13:54:42;;;;;;;0.00;0.00;;;;;;;;;;5044444;28;20206;-66
2021/10/06 13:57:11;;;;;;;0.00;0.00;;;;;;;;;;5049440;28;20200;-66
2021/10/06 13:59:38;;;;;;;0.00;0.00;;;;;;;;;;5049739;28;20196;-66
2021/10/06 14:02:06;;;;;;;0.50;0.50;;;;;;;;;;5048203;28;20234;-66
2021/10/06 14:04:33;;;;;;;0.00;0.00;;;;;;;;;;5045091;28;20214;-66
2021/10/06 14:07:01;;;;;;;0.00;0.00;;;;;;;;;;5049686;28;20231;-66
2021/10/06 14:09:29;;;;;;;0.00;0.00;;;;;;;;;;5046693;28;20199;-67
2021/10/06 14:11:56;;;;;;;1.53;0.40;;;;;;;;;;5047871;28;20230;-67
2021/10/06 14:14:25;;;;;;;0.10;0.10;;;;;;;;;;5046281;28;20214;-65
2021/10/06 14:16:52;;;;;;;0.00;0.00;;;;;;;;;;5045416;28;20200;-67
2021/10/06 14:19:20;;;;;;;0.00;0.00;;;;;;;;;;5032146;28;20224;-65
2021/10/06 14:21:47;;;;;;;1.20;0.30;;;;;;;;;;5036676;28;21136;-66
2021/10/06 14:24:15;;;;;;;0.10;0.10;;;;;;;;;;5035308;28;20214;-68
2021/10/06 14:26:42;;;;;;;0.10;0.10;;;;;;;;;;5036927;28;20203;-71
2021/10/06 14:29:10;;;;;;;0.00;0.00;;;;;;;;;;5039194;28;20214;-65
2021/10/06 14:31:39;;;;;;;0.07;0.07;;;;;;;;;;5039024;28;20238;-67
2021/10/06 14:34:06;;;;;;;0.77;0.23;;;;;;;;;;5037851;28;20210;-66
2021/10/06 14:36:36;;;;;;;0.00;0.00;;;;;;;;;;5042241;28;20208;-67
2021/10/06 14:39:04;;;;;;;0.00;0.00;;;;;;;;;;5038534;28;20579;-66
2021/10/06 14:41:32;;;;;;;0.00;0.00;;;;;;;;;;5037051;28;20670;-66
2021/10/06 14:44:03;;;;;;;0.00;0.00;;;;;;;;;;5041183;28;20296;-65
2021/10/06 14:46:31;;;;;;;0.00;0.00;;;;;;;;;;5037067;28;21770;-66
2021/10/06 14:48:59;;;;;;;0.00;0.00;;;;;;;;;;5040378;28;20210;-66
2021/10/06 14:51:28;;;;;;;0.00;0.00;;;;;;;;;;5039158;28;20204;-66